createdAt,value
2019-05-05T00:04:50.322Z,3.50
2019-05-05T00:09:57.718Z,4.95
2019-05-05T00:15:25.078Z,3.58
2019-05-05T00:20:34.374Z,4.30
2019-05-05T00:25:44.644Z,4.70
2019-05-05T00:30:51.640Z,5.62
2019-05-05T00:35:59.637Z,5.33
2019-05-05T00:41:07.260Z,7.83
2019-05-05T00:46:26.388Z,6.17
2019-05-05T00:51:34.834Z,5.58
2019-05-05T00:56:46.085Z,4.00
2019-05-05T01:02:30.835Z,4.97
2019-05-05T01:07:49.912Z,5.20
2019-05-05T01:13:05.143Z,4.53
2019-05-05T01:18:15.109Z,5.22
2019-05-05T01:23:24.285Z,6.70
2019-05-05T01:28:36.931Z,7.23
2019-05-05T01:39:58.015Z,3.55
2019-05-05T01:45:06.015Z,6.45
2019-05-05T01:50:18.472Z,4.35
2019-05-05T01:55:25.325Z,5.58
2019-05-05T02:00:34.782Z,8.45
2019-05-05T02:05:42.237Z,15.70
2019-05-05T02:10:58.351Z,19.32
2019-05-05T02:16:14.940Z,8.98
2019-05-05T02:21:22.047Z,7.97
2019-05-05T02:26:29.665Z,5.95
2019-05-05T02:31:59.183Z,4.83
2019-05-05T02:37:12.615Z,10.98
2019-05-05T02:42:28.656Z,7.78
2019-05-05T02:48:00.788Z,10.33
2019-05-05T02:53:15.256Z,8.15
2019-05-05T02:58:29.750Z,12.97
2019-05-05T03:03:41.116Z,13.18
2019-05-05T03:08:51.084Z,10.55
2019-05-05T03:14:01.258Z,10.32
2019-05-05T03:19:10.740Z,8.48
2019-05-05T03:24:23.608Z,7.60
2019-05-05T03:34:48.273Z,8.63
2019-05-05T03:40:14.812Z,8.75
2019-05-05T03:45:49.753Z,6.37
2019-05-05T03:56:15.133Z,9.05
2019-05-05T04:08:14.759Z,8.03
2019-05-05T04:13:27.273Z,11.37
2019-05-05T04:18:44.387Z,12.78
2019-05-05T04:23:54.764Z,8.55
2019-05-05T04:39:29.376Z,7.70
2019-05-05T04:44:38.722Z,6.30
2019-05-05T04:50:04.315Z,7.95
2019-05-05T04:56:23.378Z,12.50
2019-05-05T05:01:30.909Z,12.15
2019-05-05T05:06:44.496Z,11.08
2019-05-05T05:11:51.659Z,9.13
2019-05-05T05:17:00.343Z,9.10
2019-05-05T05:32:20.913Z,8.48
2019-05-05T05:37:27.924Z,9.50
2019-05-05T05:42:35.342Z,10.18
2019-05-05T05:47:50.304Z,5.93
2019-05-05T05:52:57.582Z,6.30
2019-05-05T05:58:04.974Z,9.80
2019-05-05T06:03:14.077Z,7.22
2019-05-05T06:13:27.660Z,6.62
2019-05-05T06:18:34.745Z,6.33
2019-05-05T06:23:43.727Z,6.25
2019-05-05T06:28:51.593Z,6.95
2019-05-05T06:33:58.653Z,9.20
2019-05-05T06:39:08.286Z,6.60
2019-05-05T06:44:38.291Z,7.42
2019-05-05T06:49:45.641Z,8.08
2019-05-05T06:54:54.284Z,6.58
2019-05-05T07:02:16.730Z,6.45
2019-05-05T07:07:27.982Z,4.78
2019-05-05T07:12:35.637Z,5.47
2019-05-05T07:17:46.687Z,6.70
2019-05-05T07:22:59.765Z,7.22
2019-05-05T07:28:04.333Z,5.55
2019-05-05T07:33:14.748Z,5.90
2019-05-05T07:48:33.724Z,5.20
2019-05-05T07:53:41.442Z,4.22
2019-05-05T07:58:47.515Z,7.60
2019-05-05T08:09:01.534Z,3.75
2019-05-05T08:14:10.606Z,3.08
2019-05-05T08:19:45.019Z,6.10
2019-05-05T08:25:09.890Z,5.95
2019-05-05T08:30:35.525Z,3.62
2019-05-05T08:35:44.706Z,3.58
2019-05-05T08:40:51.686Z,4.12
2019-05-05T08:45:58.769Z,4.00
2019-05-05T08:51:06.250Z,2.98
2019-05-05T08:56:14.631Z,3.58
2019-05-05T09:01:23.791Z,7.25
2019-05-05T09:06:31.627Z,4.30
2019-05-05T09:11:38.635Z,4.37
2019-05-05T09:16:46.497Z,4.00
2019-05-05T09:21:54.235Z,2.40
2019-05-05T09:32:20.882Z,3.62
2019-05-05T09:37:35.919Z,2.77
2019-05-05T09:42:50.344Z,2.95
2019-05-05T09:47:59.392Z,2.45
2019-05-05T09:53:06.766Z,6.28
2019-05-05T09:58:14.162Z,4.30
2019-05-05T10:03:21.651Z,5.80
2019-05-05T10:08:37.994Z,3.27
2019-05-05T10:13:45.667Z,2.25
2019-05-05T10:18:59.029Z,6.28
2019-05-05T10:24:33.896Z,2.65
2019-05-05T10:29:48.483Z,2.60
2019-05-05T10:35:05.935Z,3.37
2019-05-05T10:40:24.921Z,3.47
2019-05-05T10:45:31.668Z,2.85
2019-05-05T10:50:38.730Z,3.55
2019-05-05T10:55:55.189Z,2.37
2019-05-05T11:01:08.719Z,4.20
2019-05-05T11:06:16.774Z,3.45
2019-05-05T11:11:24.586Z,3.65
2019-05-05T11:16:33.323Z,3.37
2019-05-05T11:21:40.620Z,1.98
2019-05-05T11:26:48.056Z,2.98
2019-05-05T11:31:56.644Z,3.33
2019-05-05T11:37:09.088Z,5.17
2019-05-05T11:52:28.635Z,2.02
2019-05-05T11:57:35.672Z,2.85
2019-05-05T12:02:44.269Z,4.85
2019-05-05T12:07:51.643Z,1.98
2019-05-05T12:12:59.597Z,3.72
2019-05-05T12:18:08.430Z,4.47
2019-05-05T12:23:15.643Z,2.80
2019-05-05T12:28:48.685Z,4.00
2019-05-05T12:39:18.791Z,3.55
2019-05-05T12:44:33.964Z,4.10
2019-05-05T12:49:40.634Z,2.47
2019-05-05T12:54:48.118Z,3.58
2019-05-05T12:59:55.919Z,4.27
2019-05-05T13:05:04.277Z,2.25
2019-05-05T13:10:15.046Z,3.25
2019-05-05T13:15:24.710Z,5.80
2019-05-05T13:20:45.311Z,4.37
2019-05-05T13:26:04.249Z,5.20
2019-05-05T13:31:11.251Z,3.90
2019-05-05T13:36:19.244Z,4.50
2019-05-05T13:46:36.921Z,3.45
2019-05-05T13:56:58.685Z,4.78
2019-05-05T14:02:16.803Z,2.72
2019-05-05T14:12:59.779Z,3.08
2019-05-05T14:23:24.312Z,3.60
2019-05-05T14:28:31.675Z,3.12
2019-05-05T14:33:55.857Z,3.33
2019-05-05T14:39:04.341Z,2.52
2019-05-05T14:44:21.435Z,6.87
2019-05-05T14:49:28.742Z,6.33
2019-05-05T15:05:03.354Z,3.40
2019-05-05T15:10:34.262Z,3.10
2019-05-05T15:15:45.224Z,3.08
2019-05-05T15:21:02.382Z,4.70
2019-05-05T15:26:19.672Z,3.50
2019-05-05T15:31:37.179Z,7.20
2019-05-05T15:36:51.285Z,2.83
2019-05-05T15:42:11.563Z,7.30
2019-05-05T15:47:28.423Z,5.47
2019-05-05T15:52:36.623Z,9.78
2019-05-05T15:57:44.389Z,5.03
2019-05-05T16:02:51.691Z,4.67
2019-05-05T16:08:04.623Z,4.00
2019-05-05T16:18:27.084Z,4.60
2019-05-05T16:23:37.502Z,3.80
2019-05-05T16:28:44.801Z,2.80
2019-05-05T16:33:52.727Z,2.30
2019-05-05T16:39:00.636Z,3.50
2019-05-05T16:44:09.943Z,2.75
2019-05-05T16:49:17.622Z,5.90
2019-05-05T16:54:37.277Z,4.67
2019-05-05T17:04:57.729Z,3.50
2019-05-05T17:10:13.702Z,1.70
2019-05-05T17:15:53.665Z,3.33
2019-05-05T17:26:56.626Z,2.33
2019-05-05T17:32:03.565Z,4.45
2019-05-05T17:37:10.449Z,3.05
2019-05-05T17:42:39.394Z,1.95
2019-05-05T17:47:51.452Z,3.17
2019-05-05T17:53:12.402Z,2.80
2019-05-05T17:58:19.475Z,2.60
2019-05-05T18:03:26.493Z,4.47
2019-05-05T18:08:40.268Z,3.98
2019-05-05T18:13:58.044Z,2.75
2019-05-05T18:19:05.456Z,4.28
2019-05-05T18:24:13.768Z,6.12
2019-05-05T18:29:20.595Z,6.83
2019-05-05T18:34:27.506Z,2.90
2019-05-05T18:44:44.549Z,4.08
2019-05-05T18:54:57.425Z,3.15
2019-05-05T19:05:37.888Z,6.47
2019-05-05T19:10:45.043Z,3.07
2019-05-05T19:15:53.911Z,4.33
2019-05-05T19:21:05.594Z,5.65
2019-05-05T19:26:14.450Z,7.60
2019-05-05T19:31:21.461Z,11.50
2019-05-05T19:36:28.488Z,7.58
2019-05-05T19:41:35.479Z,8.38
2019-05-05T19:46:57.130Z,6.97
2019-05-05T20:02:17.903Z,8.13
2019-05-05T20:07:24.928Z,8.58
2019-05-05T20:12:33.535Z,5.62
2019-05-05T20:17:40.584Z,8.15
2019-05-05T20:22:47.579Z,6.78
2019-05-05T20:27:56.080Z,7.87
2019-05-05T20:33:08.386Z,7.80
2019-05-05T20:38:29.745Z,6.78
2019-05-05T20:43:36.456Z,7.65
2019-05-05T20:48:44.860Z,9.85
2019-05-05T20:53:54.223Z,9.15
2019-05-05T20:59:01.463Z,6.90
2019-05-05T21:04:08.477Z,5.78
2019-05-05T21:09:17.073Z,5.67
2019-05-05T21:14:33.593Z,5.93
2019-05-05T21:19:34.595Z,7.10
2019-05-05T21:29:47.409Z,4.85
2019-05-05T21:34:54.451Z,5.92
2019-05-05T21:40:01.448Z,5.78
2019-05-05T21:45:08.729Z,5.30
2019-05-05T21:50:18.247Z,6.00
2019-05-05T22:01:04.460Z,4.92
2019-05-05T22:06:14.646Z,6.78
2019-05-05T22:11:21.589Z,8.78
2019-05-05T22:16:28.459Z,4.53
2019-05-05T22:21:49.541Z,6.95
2019-05-05T22:26:56.459Z,6.50
2019-05-05T22:32:06.019Z,8.80
2019-05-05T22:37:14.237Z,5.40
2019-05-05T22:42:21.458Z,8.58
2019-05-05T22:47:28.463Z,4.55
2019-05-05T22:52:35.483Z,5.60
2019-05-05T22:57:42.460Z,5.97
2019-05-05T23:02:54.874Z,8.50
2019-05-05T23:13:08.442Z,8.13
2019-05-05T23:18:21.242Z,8.68
2019-05-05T23:30:15.999Z,8.23
2019-05-05T23:35:23.892Z,9.30
2019-05-05T23:45:37.426Z,9.60
2019-05-05T23:50:44.608Z,9.03
2019-05-05T23:55:51.459Z,8.98
